This is the latest recevied weather packets stored in our database for station/object M0OAB-1. If no packets are shown the sender has not sent any weather packets the latest 10 day(s).
| Time | Temp. | Humidity | Pressure | Rain* | Wind** | Luminosity | Snow |
|---|---|---|---|---|---|---|---|
| 1777993925 | 17.78° C | 42% | 997.7 hPa | 0 mm | - | - | - |
| 1777993565 | 17.78° C | 42% | 997.7 hPa | 0 mm | - | - | - |
| 1777993325 | 17.78° C | 42% | 997.6 hPa | 0 mm | - | - | - |
| 1777992845 | 18.33° C | 41% | 997.7 hPa | 0 mm | - | - | - |
| 1777989485 | 18.89° C | 43% | 997.9 hPa | 0 mm | - | - | - |
| 1777986005 | 18.33° C | 43% | 998.3 hPa | 0 mm | - | - | - |
| 1777985885 | 18.33° C | 43% | 998.3 hPa | 0 mm | - | - | - |
| 1777984565 | 18.89° C | 43% | 998.3 hPa | 0 mm | - | - | - |
| 1777983845 | 18.33° C | 43% | 998.4 hPa | 0 mm | - | - | - |
| 1777983605 | 18.33° C | 41% | 998.4 hPa | 0 mm | - | - | - |
| 1777982884 | 17.78° C | 42% | 998.3 hPa | 0 mm | - | - | - |
| 1777981685 | 17.78° C | 42% | 998.4 hPa | 0 mm | - | - | - |
| 1777981565 | 17.78° C | 41% | 998.5 hPa | 0 mm | - | - | - |
| 1777980725 | 18.33° C | 41% | 998.5 hPa | 0 mm | - | - | - |
| 1777980245 | 18.33° C | 42% | 998.6 hPa | 0 mm | - | - | - |
| 1777979645 | 17.22° C | 49% | 998.7 hPa | 0 mm | - | - | - |
| 1777978084 | 16.67° C | 52% | 998.7 hPa | 0 mm | - | - | - |
| 1777977845 | 16.67° C | 53% | 998.9 hPa | 0 mm | - | - | - |
| 1777976285 | 15.56° C | 60% | 998.9 hPa | 0 mm | - | - | - |
| 1777976045 | 15.56° C | 60% | 998.9 hPa | 0 mm | - | - | - |
| 1777975925 | 15.56° C | 60% | 998.9 hPa | 0 mm | - | - | - |
| 1777975084 | 15.56° C | 59% | 999 hPa | 0 mm | - | - | - |
| 1777974604 | 15.56° C | 60% | 999 hPa | 0 mm | - | - | - |
| 1777973644 | 16.67° C | 60% | 999.1 hPa | 0 mm | - | - | - |
| 1777972805 | 16.67° C | 61% | 999.1 hPa | 0 mm | - | - | - |
* Rain latest hour (hover to see other rain measurements)
** Current wind speed in m/s (hover to see current wind gust speed)